Time;durP1;ratioP1;P1;durP2;ratioP2;P2;SDS_P1;SDS_P2;PMS_P1;PMS_P2;Temp;Humidity;BMP_temperature;BMP_pressure;BME280_temperature;BME280_humidity;BME280_pressure;Samples;Min_cycle;Max_cycle;Signal;HPM_P1;HPM_P2
2023/08/25 00:01:43;;;;;;;10.20;9.30;;;25.40;62.00;;;;;;5050552;28;20029;-34
2023/08/25 00:04:09;;;;;;;10.67;9.77;;;25.40;61.80;;;;;;5054350;28;20482;-34
2023/08/25 00:06:36;;;;;;;9.85;9.05;;;25.40;62.00;;;;;;5051310;28;20063;-34
2023/08/25 00:09:02;;;;;;;9.45;8.65;;;25.30;61.90;;;;;;5060079;28;20048;-34
2023/08/25 00:11:28;;;;;;;9.85;8.95;;;25.30;62.10;;;;;;5059605;28;20039;-34
2023/08/25 00:13:54;;;;;;;9.85;9.05;;;25.30;61.90;;;;;;5053966;28;20644;-34
2023/08/25 00:16:20;;;;;;;9.70;8.85;;;25.30;61.70;;;;;;5060456;28;20115;-34
2023/08/25 00:18:46;;;;;;;10.30;9.40;;;25.20;61.70;;;;;;5053815;28;20056;-35
2023/08/25 00:21:12;;;;;;;9.37;8.57;;;25.20;61.50;;;;;;5063382;28;20029;-34
2023/08/25 00:23:39;;;;;;;10.13;9.23;;;25.20;60.90;;;;;;5062694;28;20037;-34
2023/08/25 00:26:05;;;;;;;9.80;8.95;;;25.20;60.90;;;;;;5063498;28;20029;-34
2023/08/25 00:28:31;;;;;;;10.38;9.48;;;25.20;61.90;;;;;;5063172;28;20136;-34
2023/08/25 00:30:57;;;;;;;10.35;9.45;;;25.20;61.60;;;;;;5065810;28;20032;-34
2023/08/25 00:33:23;;;;;;;9.63;8.82;;;25.20;61.50;;;;;;5074527;28;20032;-35
2023/08/25 00:35:49;;;;;;;9.50;8.70;;;25.20;61.50;;;;;;5071263;28;20094;-34
2023/08/25 00:38:16;;;;;;;10.52;9.57;;;25.10;61.70;;;;;;5057804;28;20309;-34
2023/08/25 00:40:42;;;;;;;10.00;9.10;;;25.10;61.40;;;;;;5055557;28;20545;-34
2023/08/25 00:43:08;;;;;;;9.63;8.83;;;25.10;61.70;;;;;;5068294;28;20052;-34
2023/08/25 00:45:38;;;;;;;9.68;8.88;;;25.10;61.80;;;;;;5061647;28;20061;-34
2023/08/25 00:48:05;;;;;;;9.40;8.60;;;25.10;61.50;;;;;;5062302;28;20029;-35
2023/08/25 00:50:31;;;;;;;10.25;9.35;;;25.00;61.50;;;;;;5061226;28;20021;-35
2023/08/25 00:52:58;;;;;;;10.25;9.35;;;25.00;61.50;;;;;;5061311;28;20092;-34
2023/08/25 00:55:24;;;;;;;10.57;9.68;;;25.00;63.00;;;;;;5054086;28;20045;-34
2023/08/25 00:57:50;;;;;;;11.00;10.00;;;25.00;64.50;;;;;;5053859;28;20029;-34
2023/08/25 01:00:17;;;;;;;10.85;9.95;;;25.00;65.40;;;;;;5043709;28;20029;-34
2023/08/25 01:02:43;;;;;;;11.60;10.60;;;25.00;65.60;;;;;;5053170;28;20769;-34
2023/08/25 01:05:09;;;;;;;10.83;9.87;;;25.00;65.70;;;;;;5061267;28;20024;-35
2023/08/25 01:07:35;;;;;;;11.03;10.10;;;25.00;65.70;;;;;;5059655;28;20040;-34
2023/08/25 01:10:02;;;;;;;11.20;10.20;;;25.00;66.10;;;;;;5073938;28;20033;-34
2023/08/25 01:12:59;;;;;;;10.10;9.20;;;25.00;65.90;;;;;;5047885;28;20113;-34
2023/08/25 01:15:33;;;;;;;11.35;10.30;;;25.00;66.10;;;;;;5038010;28;20032;-34
2023/08/25 01:18:07;;;;;;;11.40;10.40;;;25.00;66.10;;;;;;5052453;28;20031;-34
2023/08/25 01:20:33;;;;;;;10.88;9.98;;;25.10;66.40;;;;;;5054377;28;20085;-35
2023/08/25 01:23:34;;;;;;;10.50;9.60;;;25.10;67.30;;;;;;5037613;28;20025;-34
2023/08/25 01:26:00;;;;;;;11.70;10.70;;;25.10;66.70;;;;;;5055861;28;20036;-34
2023/08/25 01:28:28;;;;;;;11.02;10.05;;;25.10;66.90;;;;;;5034350;28;20030;-34
2023/08/25 01:30:56;;;;;;;11.07;10.07;;;25.10;67.20;;;;;;5060266;28;20025;-34
2023/08/25 01:33:27;;;;;;;11.75;10.75;;;25.20;67.50;;;;;;5055717;28;20097;-35
2023/08/25 01:36:06;;;;;;;12.38;11.27;;;25.10;67.70;;;;;;5048831;28;20033;-34
2023/08/25 01:38:52;;;;;;;11.85;10.85;;;25.20;68.00;;;;;;5052310;28;20029;-36
2023/08/25 01:41:30;;;;;;;11.57;10.57;;;25.20;68.10;;;;;;5046234;28;20442;-34
2023/08/25 01:43:56;;;;;;;11.63;10.63;;;25.20;68.40;;;;;;5070047;28;20024;-35
2023/08/25 01:46:22;;;;;;;11.90;10.90;;;25.20;68.50;;;;;;5041749;28;20036;-34
2023/08/25 01:48:51;;;;;;;12.00;10.97;;;25.20;68.50;;;;;;5022937;28;20029;-34
2023/08/25 01:51:17;;;;;;;11.85;10.85;;;25.30;68.70;;;;;;5057475;28;20028;-35
2023/08/25 01:53:53;;;;;;;11.50;10.50;;;25.30;68.90;;;;;;5064052;28;20054;-35
2023/08/25 01:56:20;;;;;;;11.15;10.15;;;25.30;68.90;;;;;;5066788;28;20053;-34
2023/08/25 01:58:46;;;;;;;12.97;11.87;;;25.30;69.00;;;;;;5052622;28;20037;-35
2023/08/25 02:01:12;;;;;;;12.13;11.13;;;25.30;69.10;;;;;;5057136;28;20288;-34
2023/08/25 02:03:38;;;;;;;11.67;10.67;;;25.40;69.20;;;;;;5072751;28;20068;-34
2023/08/25 02:06:04;;;;;;;11.85;10.85;;;25.40;69.20;;;;;;5055797;28;20044;-35
2023/08/25 02:08:30;;;;;;;11.33;10.33;;;25.40;69.20;;;;;;5046642;28;20029;-34
2023/08/25 02:10:57;;;;;;;12.07;11.07;;;25.40;69.30;;;;;;5072990;28;20106;-35
2023/08/25 02:13:23;;;;;;;11.85;10.85;;;25.40;70.00;;;;;;5071936;28;20040;-34
2023/08/25 02:15:50;;;;;;;11.70;10.70;;;25.40;69.30;;;;;;5060834;28;20037;-34
2023/08/25 02:18:17;;;;;;;11.88;10.88;;;25.40;69.30;;;;;;5060983;28;20033;-36
2023/08/25 02:20:43;;;;;;;12.13;10.98;;;25.40;69.40;;;;;;5056212;28;20059;-34
2023/08/25 02:23:09;;;;;;;12.30;11.20;;;25.40;69.40;;;;;;5062205;28;20021;-34
2023/08/25 02:25:35;;;;;;;11.25;10.25;;;25.40;69.60;;;;;;5059028;28;20389;-34
2023/08/25 02:28:02;;;;;;;12.60;11.50;;;25.50;69.60;;;;;;5063224;28;20028;-34
2023/08/25 02:30:28;;;;;;;12.13;11.13;;;25.50;69.70;;;;;;5063508;28;20346;-35
2023/08/25 02:32:57;;;;;;;12.17;11.17;;;25.50;69.70;;;;;;5065884;28;20037;-35
2023/08/25 02:35:23;;;;;;;11.93;10.93;;;25.50;69.70;;;;;;5079969;28;20056;-36
2023/08/25 02:38:15;;;;;;;12.53;11.43;;;25.50;69.70;;;;;;5052693;28;20035;-36
2023/08/25 02:40:42;;;;;;;12.43;11.40;;;25.50;69.70;;;;;;5054342;28;20079;-36
2023/08/25 02:43:08;;;;;;;11.98;10.85;;;25.50;69.70;;;;;;5065351;28;20063;-36
2023/08/25 02:45:35;;;;;;;11.80;10.90;;;25.50;69.70;;;;;;5058422;28;20055;-36
2023/08/25 02:48:01;;;;;;;12.13;11.02;;;25.50;69.80;;;;;;5058242;28;20420;-36
2023/08/25 02:50:28;;;;;;;12.48;11.30;;;25.50;69.80;;;;;;5064976;28;20028;-33
2023/08/25 02:52:56;;;;;;;12.27;11.20;;;25.50;69.90;;;;;;5056942;28;20135;-34
2023/08/25 02:55:23;;;;;;;12.68;11.57;;;25.60;70.10;;;;;;5049378;28;20080;-34
2023/08/25 02:57:49;;;;;;;12.37;11.30;;;25.60;70.10;;;;;;5061607;28;20468;-34
2023/08/25 03:00:16;;;;;;;12.57;11.48;;;25.60;70.10;;;;;;5035619;28;20328;-34
2023/08/25 03:02:43;;;;;;;12.48;11.38;;;25.60;70.20;;;;;;5039235;28;20071;-34
2023/08/25 03:05:10;;;;;;;11.73;10.82;;;25.60;70.30;;;;;;5075703;28;20017;-34
2023/08/25 03:07:36;;;;;;;12.77;11.68;;;25.60;70.30;;;;;;5065489;28;20040;-34
2023/08/25 03:10:03;;;;;;;12.37;11.27;;;25.60;70.30;;;;;;5056567;28;20024;-34
2023/08/25 03:12:29;;;;;;;12.13;11.07;;;25.60;70.30;;;;;;5063815;28;20473;-34
2023/08/25 03:14:55;;;;;;;12.18;11.18;;;25.60;70.30;;;;;;5054488;28;20075;-33
2023/08/25 03:17:22;;;;;;;12.83;11.73;;;25.60;70.30;;;;;;5063204;28;20036;-34
2023/08/25 03:19:48;;;;;;;12.68;11.60;;;25.60;70.30;;;;;;5050945;28;20029;-34
2023/08/25 03:22:15;;;;;;;13.23;12.07;;;25.60;70.30;;;;;;5072160;28;20056;-34
2023/08/25 03:24:41;;;;;;;12.67;11.57;;;25.60;70.40;;;;;;5059035;28;20034;-35
2023/08/25 03:27:07;;;;;;;12.32;11.23;;;25.70;70.50;;;;;;5073665;28;20034;-34
2023/08/25 03:29:33;;;;;;;13.33;12.13;;;25.60;70.40;;;;;;5056383;28;20025;-34
2023/08/25 03:32:00;;;;;;;12.23;11.20;;;25.70;70.50;;;;;;5064183;28;20100;-34
2023/08/25 03:34:26;;;;;;;13.32;12.02;;;25.70;70.60;;;;;;5074673;28;20303;-34
2023/08/25 03:36:52;;;;;;;12.50;11.40;;;25.60;70.50;;;;;;5054628;28;20048;-34
2023/08/25 03:39:18;;;;;;;12.63;11.63;;;25.70;70.70;;;;;;5053466;28;20309;-34
2023/08/25 03:41:45;;;;;;;11.87;10.77;;;25.70;70.70;;;;;;5053526;28;20057;-34
2023/08/25 03:44:11;;;;;;;12.00;11.00;;;25.70;70.70;;;;;;5061251;28;20060;-34
2023/08/25 03:46:37;;;;;;;12.63;11.52;;;25.70;70.70;;;;;;5060018;28;20043;-34
2023/08/25 03:49:05;;;;;;;11.98;10.98;;;25.70;70.70;;;;;;5059146;28;20032;-35
2023/08/25 03:51:32;;;;;;;12.73;11.63;;;25.70;70.60;;;;;;5051575;28;20091;-35
2023/08/25 03:53:59;;;;;;;;;;;25.70;70.70;;;;;;5066826;28;20025;-35
2023/08/25 03:56:25;;;;;;;12.55;11.45;;;25.70;70.70;;;;;;5070750;28;19920;-34
2023/08/25 03:58:51;;;;;;;12.20;11.20;;;25.70;70.70;;;;;;5069915;28;20051;-35
2023/08/25 04:01:17;;;;;;;12.35;11.25;;;25.70;70.70;;;;;;5064898;28;20040;-35
2023/08/25 04:03:43;;;;;;;12.70;11.53;;;25.70;70.70;;;;;;5061480;28;20033;-35
2023/08/25 04:06:09;;;;;;;12.48;11.48;;;25.70;70.70;;;;;;5045115;28;20040;-35
2023/08/25 04:08:35;;;;;;;12.47;11.37;;;25.70;70.70;;;;;;5055924;28;20465;-35
2023/08/25 04:11:02;;;;;;;13.23;12.02;;;25.70;70.80;;;;;;5077477;28;20035;-35
2023/08/25 04:13:28;;;;;;;12.45;11.45;;;25.70;70.80;;;;;;5070687;28;20561;-35
2023/08/25 04:15:56;;;;;;;12.63;11.55;;;25.70;70.80;;;;;;5052370;28;20052;-35
2023/08/25 04:18:22;;;;;;;13.27;12.07;;;25.70;70.80;;;;;;5052214;28;20052;-34
2023/08/25 04:20:48;;;;;;;12.32;11.32;;;25.70;70.70;;;;;;5040761;28;20029;-35
2023/08/25 04:23:15;;;;;;;12.00;10.93;;;25.70;70.80;;;;;;5044159;28;20057;-35
2023/08/25 04:25:41;;;;;;;12.10;11.10;;;25.70;70.70;;;;;;5068580;28;20031;-35
2023/08/25 04:28:07;;;;;;;12.82;11.73;;;25.70;70.70;;;;;;5074275;28;20033;-35
2023/08/25 04:30:33;;;;;;;12.97;11.87;;;25.70;70.70;;;;;;5054488;28;20553;-35
2023/08/25 04:32:59;;;;;;;12.10;11.10;;;25.70;70.70;;;;;;5072674;28;20043;-35
2023/08/25 04:35:26;;;;;;;12.35;11.35;;;25.70;70.70;;;;;;5059754;28;20136;-34
2023/08/25 04:37:52;;;;;;;12.00;11.00;;;25.70;70.70;;;;;;5070017;28;20021;-35
2023/08/25 04:40:18;;;;;;;12.00;11.00;;;25.70;70.80;;;;;;5055624;28;20025;-35
2023/08/25 04:42:44;;;;;;;12.82;11.73;;;25.70;70.80;;;;;;5068174;28;20044;-35
2023/08/25 04:45:11;;;;;;;12.05;10.88;;;25.70;71.00;;;;;;5061173;28;20033;-34
2023/08/25 04:47:37;;;;;;;12.45;11.43;;;25.70;70.90;;;;;;5068873;28;20032;-35
2023/08/25 04:50:06;;;;;;;12.63;11.52;;;25.70;70.80;;;;;;5019895;28;20049;-35
2023/08/25 04:52:34;;;;;;;12.82;11.73;;;25.70;70.70;;;;;;5069674;28;20053;-35
2023/08/25 04:55:01;;;;;;;12.02;11.02;;;25.70;70.70;;;;;;5053745;28;20029;-34
2023/08/25 04:57:28;;;;;;;11.73;10.73;;;25.70;70.70;;;;;;5043433;28;20032;-36
2023/08/25 04:59:54;;;;;;;12.70;11.60;;;25.70;70.70;;;;;;5061712;28;20060;-35
2023/08/25 05:02:20;;;;;;;11.93;10.93;;;25.70;70.60;;;;;;5061992;28;20033;-35
2023/08/25 05:04:47;;;;;;;12.10;11.10;;;25.70;70.60;;;;;;5068501;28;20074;-35
2023/08/25 05:07:13;;;;;;;11.77;10.77;;;25.70;70.40;;;;;;5057994;28;20083;-35
2023/08/25 05:09:39;;;;;;;12.98;11.88;;;25.70;70.40;;;;;;5067358;28;20041;-35
2023/08/25 05:12:05;;;;;;;12.30;11.23;;;25.70;70.50;;;;;;5070933;28;20013;-34
2023/08/25 05:14:32;;;;;;;12.45;11.40;;;25.70;70.60;;;;;;5059643;28;20092;-35
2023/08/25 05:16:58;;;;;;;11.77;10.77;;;25.80;70.80;;;;;;5058658;28;20045;-35
2023/08/25 05:19:24;;;;;;;11.65;10.65;;;25.70;70.70;;;;;;5071679;28;20033;-35
2023/08/25 05:21:50;;;;;;;11.60;10.60;;;25.70;70.80;;;;;;5068518;28;20971;-34
2023/08/25 05:24:21;;;;;;;11.70;10.70;;;25.70;70.80;;;;;;5061994;28;20025;-35
2023/08/25 05:26:47;;;;;;;11.77;10.77;;;25.70;70.80;;;;;;5043116;28;20029;-35
2023/08/25 05:29:14;;;;;;;12.20;11.20;;;25.70;70.70;;;;;;5059994;28;20700;-35
2023/08/25 05:31:41;;;;;;;;;;;25.70;70.60;;;;;;5055017;28;20044;-35
2023/08/25 05:34:09;;;;;;;11.38;10.48;;;25.70;70.50;;;;;;5062011;28;19938;-35
2023/08/25 05:36:35;;;;;;;10.95;10.05;;;25.70;70.40;;;;;;5061062;28;20095;-35
2023/08/25 05:39:01;;;;;;;10.40;9.60;;;25.70;70.40;;;;;;5060679;28;20029;-35
2023/08/25 05:41:28;;;;;;;11.25;10.25;;;25.70;70.40;;;;;;5057334;28;20033;-34
2023/08/25 05:43:54;;;;;;;11.73;10.73;;;25.70;70.30;;;;;;5059915;28;20102;-34
2023/08/25 05:46:20;;;;;;;11.63;10.63;;;25.70;70.40;;;;;;5058940;28;20272;-35
2023/08/25 05:48:46;;;;;;;11.57;10.65;;;25.70;70.40;;;;;;5069165;28;20055;-35
2023/08/25 05:51:12;;;;;;;11.30;10.30;;;25.70;70.50;;;;;;5059953;28;20063;-34
2023/08/25 05:53:38;;;;;;;11.43;10.45;;;25.70;70.70;;;;;;5053899;28;20045;-35
2023/08/25 05:56:04;;;;;;;11.63;10.63;;;25.70;70.90;;;;;;5067584;28;20029;-35
2023/08/25 05:58:31;;;;;;;11.30;10.33;;;25.70;70.80;;;;;;5078631;28;20081;-35
2023/08/25 06:00:57;;;;;;;11.07;10.17;;;25.70;70.90;;;;;;5068814;28;20047;-35
2023/08/25 06:03:23;;;;;;;11.35;10.35;;;25.70;70.90;;;;;;5070874;28;20029;-34
2023/08/25 06:05:52;;;;;;;11.43;10.43;;;25.70;70.90;;;;;;5065568;28;20033;-35
2023/08/25 06:08:21;;;;;;;10.95;10.05;;;25.70;70.70;;;;;;5072416;28;20037;-38
2023/08/25 06:10:49;;;;;;;12.00;11.00;;;25.70;70.60;;;;;;5067773;28;20036;-35
2023/08/25 06:13:15;;;;;;;11.32;10.40;;;25.70;70.60;;;;;;5058790;28;20024;-35
2023/08/25 06:15:42;;;;;;;10.67;9.77;;;25.70;70.50;;;;;;5063275;28;20083;-35
2023/08/25 06:18:08;;;;;;;11.80;10.80;;;25.60;70.40;;;;;;5058302;28;20025;-35
2023/08/25 06:20:35;;;;;;;11.27;10.30;;;25.70;70.40;;;;;;5050768;28;20088;-35
2023/08/25 06:23:01;;;;;;;11.45;10.45;;;25.70;70.40;;;;;;5052543;28;20087;-35
2023/08/25 06:25:27;;;;;;;11.02;10.13;;;25.60;70.30;;;;;;5055234;28;20033;-35
2023/08/25 06:27:54;;;;;;;10.37;9.47;;;25.70;70.70;;;;;;5052945;28;20043;-35
2023/08/25 06:30:20;;;;;;;10.73;9.82;;;25.60;70.90;;;;;;5054106;28;20047;-34
2023/08/25 06:32:46;;;;;;;11.32;10.35;;;25.70;71.00;;;;;;5053939;28;20033;-35
2023/08/25 06:35:12;;;;;;;10.77;9.88;;;25.60;71.00;;;;;;5053004;28;20132;-34
2023/08/25 06:37:39;;;;;;;11.60;10.60;;;25.70;71.10;;;;;;5054842;28;20177;-35
2023/08/25 06:40:09;;;;;;;11.38;10.45;;;25.60;71.10;;;;;;5049819;28;20044;-34
2023/08/25 06:42:35;;;;;;;11.32;10.32;;;25.60;71.10;;;;;;5053051;28;20037;-35
2023/08/25 06:45:01;;;;;;;10.70;9.80;;;25.70;71.00;;;;;;5051856;28;20026;-35
2023/08/25 06:47:27;;;;;;;12.27;11.27;;;25.70;70.80;;;;;;5063671;28;20281;-35
2023/08/25 06:49:54;;;;;;;11.40;10.47;;;25.60;70.60;;;;;;5054508;28;20025;-34
2023/08/25 06:52:21;;;;;;;11.63;10.63;;;25.60;70.60;;;;;;5051800;28;20712;-35
2023/08/25 06:54:47;;;;;;;10.95;10.05;;;25.60;70.60;;;;;;5053177;28;20038;-35
2023/08/25 06:57:14;;;;;;;11.73;10.73;;;25.60;70.50;;;;;;5046618;28;20041;-35
2023/08/25 06:59:40;;;;;;;11.50;10.50;;;25.60;70.50;;;;;;5047688;28;20040;-35
2023/08/25 07:02:07;;;;;;;11.33;10.40;;;25.60;70.50;;;;;;5046199;28;20038;-35
2023/08/25 07:04:33;;;;;;;11.23;10.27;;;25.60;70.80;;;;;;5053978;28;20029;-35
2023/08/25 07:07:00;;;;;;;11.30;10.30;;;25.60;70.90;;;;;;5060182;28;20032;-35
2023/08/25 07:09:27;;;;;;;10.40;9.52;;;25.60;71.10;;;;;;5049878;28;20053;-35
2023/08/25 07:11:53;;;;;;;10.63;9.73;;;25.60;71.30;;;;;;5047480;28;20097;-34
2023/08/25 07:14:19;;;;;;;10.97;10.07;;;25.60;71.30;;;;;;5051799;28;20146;-35
2023/08/25 07:16:45;;;;;;;10.23;9.37;;;25.60;71.30;;;;;;5060961;28;20142;-34
2023/08/25 07:19:13;;;;;;;10.50;9.60;;;25.60;71.20;;;;;;5057217;28;20029;-34
2023/08/25 07:21:39;;;;;;;10.57;9.63;;;25.60;71.10;;;;;;5037644;28;20044;-35
2023/08/25 07:24:05;;;;;;;10.30;9.50;;;25.60;70.90;;;;;;5056502;28;20025;-35
2023/08/25 07:26:32;;;;;;;12.13;11.03;;;25.60;70.80;;;;;;5048604;28;20030;-34
2023/08/25 07:28:58;;;;;;;10.23;9.43;;;25.60;70.80;;;;;;5060078;28;20032;-35
2023/08/25 07:31:24;;;;;;;10.83;9.90;;;25.60;70.70;;;;;;5051147;28;20037;-34
2023/08/25 07:33:50;;;;;;;11.35;10.45;;;25.60;70.80;;;;;;5046600;28;20057;-34
2023/08/25 07:36:17;;;;;;;11.32;10.32;;;25.60;70.70;;;;;;5055157;28;20698;-35
2023/08/25 07:38:44;;;;;;;10.35;9.48;;;25.60;70.80;;;;;;5033606;28;20116;-34
2023/08/25 07:41:11;;;;;;;11.25;10.35;;;25.60;70.80;;;;;;5054055;28;20033;-35
2023/08/25 07:43:37;;;;;;;9.73;8.85;;;25.60;71.10;;;;;;5055633;28;20098;-35
2023/08/25 07:46:04;;;;;;;10.57;9.67;;;25.60;71.10;;;;;;5056964;28;20047;-35
2023/08/25 07:48:30;;;;;;;10.38;9.50;;;25.60;71.40;;;;;;5053368;28;20093;-35
2023/08/25 07:50:56;;;;;;;10.77;9.87;;;25.60;71.40;;;;;;5033989;28;20626;-35
2023/08/25 07:53:22;;;;;;;10.27;9.47;;;25.60;71.50;;;;;;5053520;28;20282;-34
2023/08/25 07:55:48;;;;;;;10.05;9.23;;;25.60;71.60;;;;;;5053621;28;20041;-35
2023/08/25 07:58:15;;;;;;;10.35;9.35;;;25.60;71.30;;;;;;5055551;28;20040;-35
2023/08/25 08:00:42;;;;;;;9.93;9.13;;;25.60;71.10;;;;;;5055726;28;20120;-35
2023/08/25 08:03:09;;;;;;;10.32;9.43;;;25.60;71.10;;;;;;5056758;28;20800;-36
2023/08/25 08:05:36;;;;;;;10.43;9.63;;;25.60;71.00;;;;;;5054285;28;20038;-35
2023/08/25 08:08:02;;;;;;;10.18;9.35;;;25.60;71.00;;;;;;5053875;28;20044;-34
2023/08/25 08:10:29;;;;;;;9.93;9.02;;;25.50;71.00;;;;;;5055428;28;20021;-35
2023/08/25 08:12:56;;;;;;;10.43;9.52;;;25.50;70.90;;;;;;5060160;28;20096;-35
2023/08/25 08:15:22;;;;;;;9.75;8.95;;;25.50;70.90;;;;;;5051976;28;20040;-35
2023/08/25 08:18:09;;;;;;;10.20;9.40;;;25.60;71.10;;;;;;5046535;28;20050;-34
2023/08/25 08:20:35;;;;;;;9.57;8.77;;;25.60;71.20;;;;;;4971896;28;20035;-35
2023/08/25 08:23:01;;;;;;;9.43;8.63;;;25.50;71.30;;;;;;4981818;28;20039;-35
2023/08/25 08:25:29;;;;;;;9.80;9.00;;;25.60;71.50;;;;;;4975051;28;20083;-35
2023/08/25 08:27:56;;;;;;;9.52;8.73;;;25.50;71.50;;;;;;4970691;28;20034;-35
2023/08/25 08:30:22;;;;;;;9.57;8.77;;;25.60;71.70;;;;;;4976725;28;20022;-34
2023/08/25 08:32:49;;;;;;;9.70;8.90;;;25.50;71.60;;;;;;4971142;28;20333;-34
2023/08/25 08:35:17;;;;;;;9.98;9.02;;;25.50;71.50;;;;;;4966485;28;20051;-35
2023/08/25 08:37:43;;;;;;;10.10;9.30;;;25.50;71.30;;;;;;4974415;28;20050;-34
2023/08/25 08:40:10;;;;;;;9.45;8.65;;;25.50;71.20;;;;;;4979514;28;20042;-35
2023/08/25 08:42:37;;;;;;;9.90;9.07;;;25.50;71.20;;;;;;4964367;28;20022;-35
2023/08/25 08:45:06;;;;;;;10.10;9.30;;;25.50;71.20;;;;;;4972749;28;20031;-35
2023/08/25 08:47:33;;;;;;;9.60;8.80;;;25.50;71.10;;;;;;4964684;28;20044;-34
2023/08/25 08:49:59;;;;;;;9.48;8.68;;;25.50;71.10;;;;;;4973212;28;20121;-35
2023/08/25 08:52:27;;;;;;;9.90;9.00;;;25.50;71.30;;;;;;4974356;28;20047;-35
2023/08/25 08:54:53;;;;;;;9.88;9.07;;;25.50;71.30;;;;;;4963139;28;20068;-34
2023/08/25 08:57:19;;;;;;;10.43;9.57;;;25.50;71.40;;;;;;4994624;28;20049;-34
2023/08/25 08:59:47;;;;;;;9.50;8.70;;;25.50;71.50;;;;;;5058109;28;20281;-35
2023/08/25 09:02:13;;;;;;;8.85;8.15;;;25.50;71.70;;;;;;5054155;28;20033;-34
2023/08/25 09:04:40;;;;;;;9.27;8.57;;;25.50;71.70;;;;;;5035592;28;20033;-35
2023/08/25 09:07:06;;;;;;;9.60;8.80;;;25.50;71.70;;;;;;5034479;28;20365;-34
2023/08/25 09:09:32;;;;;;;10.05;9.25;;;25.50;71.90;;;;;;5033468;28;20028;-35
2023/08/25 09:11:59;;;;;;;9.27;8.47;;;25.50;71.80;;;;;;5050973;28;22801;-34
2023/08/25 09:14:26;;;;;;;9.88;9.07;;;25.50;71.60;;;;;;5051597;28;20037;-34
2023/08/25 09:16:56;;;;;;;9.50;8.70;;;25.50;71.50;;;;;;5055134;28;20037;-34
2023/08/25 09:19:23;;;;;;;9.75;8.95;;;25.50;71.60;;;;;;5051085;28;20021;-34
2023/08/25 09:21:49;;;;;;;10.55;9.65;;;25.50;71.50;;;;;;5034466;28;20049;-35
2023/08/25 09:24:19;;;;;;;10.45;9.55;;;25.50;71.50;;;;;;5050881;28;20028;-35
2023/08/25 09:26:46;;;;;;;9.30;8.60;;;25.50;71.40;;;;;;5053500;28;20037;-35
2023/08/25 09:29:12;;;;;;;9.27;8.57;;;25.50;71.50;;;;;;5054087;28;20036;-35
2023/08/25 09:31:38;;;;;;;9.10;8.30;;;25.50;71.50;;;;;;5053062;28;23094;-35
2023/08/25 09:34:08;;;;;;;8.67;7.97;;;25.50;71.50;;;;;;5051755;28;20047;-34
2023/08/25 09:36:35;;;;;;;8.90;8.20;;;25.50;71.80;;;;;;5059250;28;20044;-35
2023/08/25 09:39:01;;;;;;;9.77;8.90;;;25.40;71.90;;;;;;5020638;28;20017;-34
2023/08/25 09:41:29;;;;;;;8.88;8.07;;;25.50;71.90;;;;;;5056714;28;20036;-35
2023/08/25 09:43:58;;;;;;;9.13;8.40;;;25.50;72.00;;;;;;5065568;28;20040;-35
2023/08/25 09:46:28;;;;;;;8.73;8.02;;;25.50;72.10;;;;;;5039375;28;20076;-34
2023/08/25 09:49:06;;;;;;;8.98;8.27;;;25.50;72.00;;;;;;5058264;28;20071;-35
2023/08/25 09:51:39;;;;;;;8.57;7.88;;;25.50;71.90;;;;;;5045934;28;20621;-34
2023/08/25 09:54:10;;;;;;;8.52;7.82;;;25.40;71.80;;;;;;5058024;28;20033;-35
2023/08/25 09:56:37;;;;;;;9.38;8.57;;;25.40;71.60;;;;;;5065745;28;20045;-35
2023/08/25 09:59:03;;;;;;;9.40;8.60;;;25.40;71.60;;;;;;5040137;28;20032;-35
2023/08/25 10:01:32;;;;;;;9.38;8.55;;;25.40;71.60;;;;;;5050193;28;20033;-34
2023/08/25 10:03:58;;;;;;;8.30;7.60;;;25.40;71.60;;;;;;5057770;28;20048;-35
2023/08/25 10:06:24;;;;;;;9.77;8.97;;;25.40;71.70;;;;;;5060355;28;20043;-35
2023/08/25 10:08:50;;;;;;;8.65;7.85;;;25.40;71.70;;;;;;5073559;28;20039;-34
2023/08/25 10:11:17;;;;;;;8.88;8.18;;;25.40;72.50;;;;;;5034851;28;20030;-35
2023/08/25 10:13:43;;;;;;;8.75;8.05;;;25.40;71.90;;;;;;5063901;28;20386;-34
2023/08/25 10:16:10;;;;;;;9.05;8.35;;;25.40;71.90;;;;;;5050449;28;20104;-35
2023/08/25 10:18:38;;;;;;;8.65;7.95;;;25.40;72.00;;;;;;5060146;28;20081;-35
2023/08/25 10:21:09;;;;;;;8.55;7.85;;;25.40;72.10;;;;;;5023670;28;20037;-34
2023/08/25 10:23:35;;;;;;;9.10;8.30;;;25.40;72.10;;;;;;5046978;28;20028;-35
2023/08/25 10:26:01;;;;;;;8.43;7.72;;;25.40;72.10;;;;;;5069500;28;20033;-34
2023/08/25 10:28:27;;;;;;;8.53;7.83;;;25.40;72.10;;;;;;5037955;28;20040;-35
2023/08/25 10:30:54;;;;;;;8.73;8.00;;;25.40;72.10;;;;;;5046191;28;20021;-35
2023/08/25 10:33:21;;;;;;;8.80;8.07;;;25.40;72.20;;;;;;5057309;28;20494;-35
2023/08/25 10:35:48;;;;;;;8.82;8.07;;;25.40;72.20;;;;;;5056549;28;20044;-35
2023/08/25 10:38:22;;;;;;;8.60;7.82;;;25.40;72.30;;;;;;5077905;28;20025;-34
2023/08/25 10:40:55;;;;;;;9.60;8.80;;;25.40;72.30;;;;;;5057083;28;20534;-35
2023/08/25 10:43:45;;;;;;;8.90;8.10;;;25.40;72.30;;;;;;5050099;28;20083;-35
2023/08/25 10:46:11;;;;;;;8.82;8.07;;;25.40;72.30;;;;;;5052323;28;20044;-34
2023/08/25 10:48:38;;;;;;;9.07;8.35;;;25.40;72.30;;;;;;5049194;28;20120;-35
2023/08/25 10:51:08;;;;;;;9.05;8.25;;;25.40;72.30;;;;;;5059457;28;20033;-35
2023/08/25 10:53:51;;;;;;;8.48;7.72;;;25.40;72.30;;;;;;5056831;28;20509;-36
2023/08/25 10:56:17;;;;;;;8.77;8.07;;;25.40;72.10;;;;;;5051702;28;20044;-34
2023/08/25 10:59:12;;;;;;;8.82;8.10;;;25.30;72.10;;;;;;5051459;28;20052;-34
2023/08/25 11:01:38;;;;;;;8.70;8.00;;;25.40;72.00;;;;;;5037295;28;20021;-33
2023/08/25 11:04:08;;;;;;;9.00;8.30;;;25.40;72.10;;;;;;5054019;28;20750;-35
2023/08/25 11:06:47;;;;;;;8.68;7.97;;;25.30;72.00;;;;;;5049263;28;20059;-34
2023/08/25 11:09:34;;;;;;;8.60;7.90;;;25.30;72.10;;;;;;5029686;28;20075;-35
2023/08/25 11:12:07;;;;;;;8.45;7.75;;;25.30;72.10;;;;;;5053683;28;20034;-35
2023/08/25 11:14:37;;;;;;;8.30;7.60;;;25.40;72.20;;;;;;5052161;28;20030;-34
2023/08/25 11:17:07;;;;;;;9.43;8.63;;;25.40;72.20;;;;;;5052764;28;20040;-35
2023/08/25 11:19:36;;;;;;;9.00;8.25;;;25.30;72.10;;;;;;5057561;28;20017;-34
2023/08/25 11:22:11;;;;;;;9.18;8.38;;;25.40;72.30;;;;;;5056283;28;20033;-35
2023/08/25 11:24:37;;;;;;;8.82;8.13;;;25.30;72.10;;;;;;5064102;28;20030;-34
2023/08/25 11:27:10;;;;;;;9.10;8.30;;;25.30;72.20;;;;;;5052344;28;20025;-34
2023/08/25 11:29:43;;;;;;;9.13;8.32;;;25.30;72.20;;;;;;5052687;28;20037;-35
2023/08/25 11:32:14;;;;;;;9.70;8.90;;;25.30;72.20;;;;;;5050346;28;20033;-34
2023/08/25 11:34:40;;;;;;;9.00;8.20;;;25.30;72.30;;;;;;5063840;28;20065;-35
2023/08/25 11:37:06;;;;;;;8.73;8.02;;;25.30;72.30;;;;;;5057549;28;20115;-34
2023/08/25 11:39:32;;;;;;;8.88;8.18;;;25.30;72.30;;;;;;5066893;28;20018;-35
2023/08/25 11:42:00;;;;;;;9.60;8.80;;;25.30;72.40;;;;;;5055987;28;20044;-35
2023/08/25 11:44:26;;;;;;;9.73;8.82;;;25.30;72.40;;;;;;5044633;28;20601;-34
2023/08/25 11:46:53;;;;;;;9.95;9.05;;;25.30;72.40;;;;;;5054816;28;20100;-35
2023/08/25 11:49:20;;;;;;;9.38;8.57;;;25.30;72.40;;;;;;5049778;28;20067;-34
2023/08/25 11:51:51;;;;;;;;;;;25.30;72.40;;;;;;5037514;28;20132;-35
2023/08/25 11:54:17;;;;;;;9.50;8.70;;;25.30;72.40;;;;;;5044533;28;19916;-40
2023/08/25 11:56:50;;;;;;;10.30;9.40;;;25.30;72.40;;;;;;5062860;28;20036;-35
2023/08/25 11:59:19;;;;;;;9.90;9.10;;;25.30;72.40;;;;;;5062303;28;20025;-35
2023/08/25 12:01:52;;;;;;;9.38;8.57;;;25.30;72.50;;;;;;5036570;28;20096;-34
2023/08/25 12:04:25;;;;;;;9.32;8.52;;;25.30;72.50;;;;;;5063558;28;20587;-35
2023/08/25 12:06:56;;;;;;;9.25;8.52;;;25.30;72.60;;;;;;5041860;28;20052;-35
2023/08/25 12:09:24;;;;;;;9.60;8.80;;;25.30;72.60;;;;;;5057528;28;20020;-34
2023/08/25 12:11:55;;;;;;;;;;;25.30;72.60;;;;;;5064266;28;20037;-35
2023/08/25 12:14:26;;;;;;;9.25;8.45;;;25.30;72.70;;;;;;5067035;28;19912;-35
2023/08/25 12:16:52;;;;;;;9.35;8.55;;;25.30;72.60;;;;;;5058749;28;20066;-34
2023/08/25 12:19:18;;;;;;;9.40;8.63;;;25.30;72.70;;;;;;5049369;28;20070;-35
2023/08/25 12:21:49;;;;;;;9.77;8.97;;;25.30;72.80;;;;;;5044339;28;20029;-35
2023/08/25 12:24:15;;;;;;;10.07;9.20;;;25.20;72.70;;;;;;5056175;28;20033;-35
2023/08/25 12:26:41;;;;;;;9.45;8.70;;;25.30;72.70;;;;;;5060931;28;20029;-35
2023/08/25 12:29:07;;;;;;;9.87;9.07;;;25.20;72.60;;;;;;5058555;28;20360;-34
2023/08/25 12:31:34;;;;;;;9.73;8.93;;;25.30;72.70;;;;;;5064837;28;20028;-35
2023/08/25 12:34:00;;;;;;;9.57;8.77;;;25.30;72.60;;;;;;5061261;28;20052;-35
2023/08/25 12:36:26;;;;;;;10.02;9.13;;;25.30;72.50;;;;;;5061623;28;20040;-35
2023/08/25 12:38:52;;;;;;;9.67;8.83;;;25.30;72.50;;;;;;5071915;28;20060;-35
2023/08/25 12:41:18;;;;;;;9.75;8.95;;;25.30;72.50;;;;;;5061282;28;20061;-35